Hengchun Airport


Codes: RCKW/HCN
Name: Hengchun Airport
City: Hengchung
Country: Taiwan
Elevation: 46 ft.
Wikipedia:

Photos at Hengchun Airport


   Photos courtesy of SpottingLog. You can add your own sightings and photos by signing up for a free trial today.



No photos found.

Weather at Hengchun Airport


Time (UTC)DescriptionTempratureWindCloud coverageVisibilityPressureHumidity
18-Apr-2024 00:00Clear Sky27°C13 mph, NW1%10000m1009hPa78%
18-Apr-2024 03:00Clear Sky28°C11 mph, NW1%10000m1010hPa71%
18-Apr-2024 06:00Light Rain28°C4 mph, NE11%10000m1010hPa72%
18-Apr-2024 09:00Light Rain27°C9 mph, NE97%10000m1010hPa74%
18-Apr-2024 12:00Light Rain25°C16 mph, NE93%10000m1011hPa80%
18-Apr-2024 15:00Scattered Clouds25°C18 mph, NE38%10000m1011hPa80%
18-Apr-2024 18:00Few Clouds24°C16 mph, NE21%10000m1010hPa79%
18-Apr-2024 21:00Broken Clouds24°C13 mph, NE72%10000m1011hPa81%
19-Apr-2024 00:00Broken Clouds26°C13 mph, NE83%10000m1012hPa73%
19-Apr-2024 03:00Scattered Clouds28°C16 mph, E48%10000m1012hPa67%
19-Apr-2024 06:00Scattered Clouds28°C16 mph, E33%10000m1010hPa65%
19-Apr-2024 09:00Clear Sky28°C13 mph, E10%10000m1009hPa67%
19-Apr-2024 12:00Clear Sky26°C11 mph, E5%10000m1011hPa76%
19-Apr-2024 15:00Clear Sky26°C11 mph, E0%10000m1011hPa79%
19-Apr-2024 18:00Clear Sky25°C7 mph, E0%10000m1010hPa83%
19-Apr-2024 21:00Clear Sky25°C2 mph, E6%10000m1009hPa83%
20-Apr-2024 00:00Scattered Clouds28°C4 mph, SW46%10000m1011hPa70%
20-Apr-2024 03:00Broken Clouds28°C9 mph, SW74%10000m1011hPa66%
20-Apr-2024 06:00Broken Clouds29°C11 mph, W83%10000m1009hPa65%
20-Apr-2024 09:00Scattered Clouds28°C11 mph, W39%10000m1008hPa68%
20-Apr-2024 12:00Few Clouds27°C9 mph, NW23%10000m1009hPa75%
20-Apr-2024 15:00Clear Sky26°C11 mph, NW0%10000m1010hPa77%
20-Apr-2024 18:00Clear Sky26°C9 mph, NW1%10000m1009hPa78%
20-Apr-2024 21:00Clear Sky26°C7 mph, W0%10000m1009hPa78%
21-Apr-2024 00:00Clear Sky27°C7 mph, W0%10000m1011hPa69%
21-Apr-2024 03:00Overcast Clouds28°C7 mph, SW85%10000m1012hPa63%
21-Apr-2024 06:00Scattered Clouds29°C9 mph, W43%10000m1010hPa58%
21-Apr-2024 09:00Scattered Clouds28°C13 mph, NW38%10000m1009hPa68%
21-Apr-2024 12:00Broken Clouds27°C16 mph, NW69%10000m1010hPa78%
21-Apr-2024 15:00Scattered Clouds27°C13 mph, NW42%10000m1011hPa79%
21-Apr-2024 18:00Broken Clouds27°C11 mph, NW67%10000m1009hPa80%
21-Apr-2024 21:00Overcast Clouds26°C4 mph, N98%10000m1009hPa77%
22-Apr-2024 00:00Scattered Clouds28°C0 mph, SW50%10000m1011hPa67%
22-Apr-2024 03:00Clear Sky29°C9 mph, SW2%10000m1010hPa64%
22-Apr-2024 06:00Clear Sky29°C9 mph, SW6%10000m1009hPa63%
22-Apr-2024 09:00Scattered Clouds28°C9 mph, W38%10000m1008hPa69%
22-Apr-2024 12:00Broken Clouds27°C7 mph, NW67%10000m1009hPa72%
22-Apr-2024 15:00Overcast Clouds27°C4 mph, NW100%10000m1010hPa73%
22-Apr-2024 18:00Overcast Clouds27°C2 mph, NW100%10000m1008hPa74%
22-Apr-2024 21:00Broken Clouds27°C2 mph, NW58%10000m1009hPa69%